createdAt,value
2023-02-25T00:02:02.742Z,7.59
2023-02-25T00:04:32.414Z,7.57
2023-02-25T00:07:01.747Z,7.58
2023-02-25T00:09:30.530Z,7.59
2023-02-25T00:11:58.798Z,7.59
2023-02-25T00:14:27.831Z,7.62
2023-02-25T00:16:56.468Z,7.70
2023-02-25T00:19:26.024Z,7.69
2023-02-25T00:21:54.078Z,7.77
2023-02-25T00:24:22.038Z,7.83
2023-02-25T00:26:50.446Z,7.80
2023-02-25T00:29:18.499Z,7.82
2023-02-25T00:31:47.082Z,7.80
2023-02-25T00:34:18.033Z,7.80
2023-02-25T00:36:46.403Z,7.82
2023-02-25T00:39:15.057Z,7.84
2023-02-25T00:41:43.487Z,7.81
2023-02-25T00:44:11.432Z,7.75
2023-02-25T00:46:39.710Z,7.69
2023-02-25T00:49:07.988Z,7.63
2023-02-25T00:51:38.615Z,7.63
2023-02-25T00:54:06.803Z,7.64
2023-02-25T00:56:35.073Z,7.65
2023-02-25T00:59:03.145Z,7.69
2023-02-25T01:01:33.616Z,7.72
2023-02-25T01:04:02.148Z,7.69
2023-02-25T01:06:32.102Z,7.70
2023-02-25T01:09:00.906Z,7.74
2023-02-25T01:11:32.002Z,7.72
2023-02-25T01:14:08.430Z,7.74
2023-02-25T01:16:38.144Z,7.78
2023-02-25T01:19:12.652Z,7.85
2023-02-25T01:21:44.441Z,7.91
2023-02-25T01:24:22.138Z,7.92
2023-02-25T01:26:53.706Z,7.96
2023-02-25T01:29:28.042Z,8.04
2023-02-25T01:31:59.427Z,8.04
2023-02-25T01:34:29.121Z,8.00
2023-02-25T01:36:57.760Z,8.05
2023-02-25T01:39:27.868Z,8.13
2023-02-25T01:41:58.953Z,8.18
2023-02-25T01:44:32.130Z,8.16
2023-02-25T01:47:01.564Z,8.14
2023-02-25T01:49:46.492Z,8.11
2023-02-25T01:52:21.105Z,8.07
2023-02-25T01:54:54.186Z,7.98
2023-02-25T01:57:23.935Z,7.94
2023-02-25T01:59:54.554Z,7.93
2023-02-25T02:02:24.645Z,7.99
2023-02-25T02:04:54.987Z,8.02
2023-02-25T02:07:24.992Z,8.08
2023-02-25T02:09:56.263Z,8.09
2023-02-25T02:12:27.717Z,8.07
2023-02-25T02:14:59.608Z,8.05
2023-02-25T02:17:40.856Z,8.04
2023-02-25T02:20:14.963Z,8.06
2023-02-25T02:23:14.988Z,8.02
2023-02-25T02:26:17.379Z,7.99
2023-02-25T02:29:19.126Z,7.97
2023-02-25T02:31:52.897Z,7.98
2023-02-25T02:34:35.852Z,8.01
2023-02-25T02:37:29.741Z,8.02
2023-02-25T02:40:25.036Z,7.97
2023-02-25T02:43:04.578Z,7.92
2023-02-25T02:45:57.053Z,7.90
2023-02-25T02:48:30.117Z,7.86
2023-02-25T02:51:02.259Z,7.80
2023-02-25T02:53:40.216Z,7.76
2023-02-25T02:56:12.401Z,7.72
2023-02-25T02:58:40.313Z,7.71
2023-02-25T03:01:19.450Z,7.75
2023-02-25T03:03:52.401Z,7.80
2023-02-25T03:06:29.677Z,7.85
2023-02-25T03:09:04.540Z,7.90
2023-02-25T03:11:34.465Z,7.88
2023-02-25T03:14:02.751Z,7.80
2023-02-25T03:17:00.410Z,7.68
2023-02-25T03:19:44.298Z,7.62
2023-02-25T03:22:16.043Z,7.56
2023-02-25T03:24:56.581Z,7.52
2023-02-25T03:27:34.471Z,7.45
2023-02-25T03:30:15.555Z,7.41
2023-02-25T03:32:49.774Z,7.39
2023-02-25T03:35:21.161Z,7.39
2023-02-25T03:37:53.158Z,7.39
2023-02-25T03:40:23.721Z,7.37
2023-02-25T03:42:58.858Z,7.33
2023-02-25T03:45:28.404Z,7.31
2023-02-25T03:47:58.484Z,7.32
2023-02-25T03:50:31.200Z,7.36
2023-02-25T03:53:01.801Z,7.28
2023-02-25T03:56:08.711Z,7.20
2023-02-25T03:58:39.231Z,7.15
2023-02-25T04:01:17.347Z,7.14
2023-02-25T04:03:45.796Z,7.17
2023-02-25T04:06:15.098Z,7.27
2023-02-25T04:08:43.274Z,7.33
2023-02-25T04:11:11.229Z,7.37
2023-02-25T04:13:39.922Z,7.43
2023-02-25T04:16:08.611Z,7.47
2023-02-25T04:18:36.874Z,7.52
2023-02-25T04:21:07.502Z,7.58
2023-02-25T04:23:36.707Z,7.60
2023-02-25T04:26:04.966Z,7.62
2023-02-25T04:28:32.883Z,7.69
2023-02-25T04:31:01.197Z,7.66
2023-02-25T04:33:29.307Z,7.68
2023-02-25T04:35:57.376Z,7.68
2023-02-25T04:38:25.748Z,7.70
2023-02-25T04:40:53.720Z,7.68
2023-02-25T04:43:21.900Z,7.63
2023-02-25T04:45:49.814Z,7.57
2023-02-25T04:48:24.399Z,7.50
2023-02-25T04:50:52.750Z,7.47
2023-02-25T04:53:21.048Z,7.46
2023-02-25T04:55:49.087Z,7.49
2023-02-25T04:58:17.593Z,7.48
2023-02-25T05:00:49.019Z,7.49
2023-02-25T05:03:17.547Z,7.55
2023-02-25T05:05:45.715Z,7.60
2023-02-25T05:08:13.780Z,7.57
2023-02-25T05:10:41.747Z,7.53
2023-02-25T05:13:10.130Z,7.53
2023-02-25T05:15:38.104Z,7.53
2023-02-25T05:18:06.268Z,7.50
2023-02-25T05:20:34.641Z,7.49
2023-02-25T05:23:02.741Z,7.44
2023-02-25T05:25:30.796Z,7.48
2023-02-25T05:27:58.975Z,7.54
2023-02-25T05:30:26.953Z,7.56
2023-02-25T05:32:55.143Z,7.54
2023-02-25T05:35:23.283Z,7.52
2023-02-25T05:37:51.571Z,7.50
2023-02-25T05:40:19.943Z,7.51
2023-02-25T05:42:49.667Z,7.49
2023-02-25T05:45:18.240Z,7.49
2023-02-25T05:47:46.322Z,7.56
2023-02-25T05:50:14.390Z,7.64
2023-02-25T05:52:42.755Z,7.74
2023-02-25T05:55:11.284Z,7.83
2023-02-25T05:57:39.316Z,7.79
2023-02-25T06:00:09.916Z,7.82
2023-02-25T06:02:41.615Z,7.95
2023-02-25T06:05:10.043Z,8.09
2023-02-25T06:07:38.054Z,8.19
2023-02-25T06:10:06.727Z,8.27
2023-02-25T06:12:35.317Z,8.37
2023-02-25T06:15:03.597Z,8.43
2023-02-25T06:17:31.661Z,8.44
2023-02-25T06:19:59.742Z,8.50
2023-02-25T06:22:28.120Z,8.63
2023-02-25T06:24:56.089Z,8.70
2023-02-25T06:27:24.464Z,8.68
2023-02-25T06:29:52.331Z,8.70
2023-02-25T06:32:20.456Z,8.70
2023-02-25T06:34:48.571Z,8.68
2023-02-25T06:37:16.557Z,8.65
2023-02-25T06:39:44.816Z,8.65
2023-02-25T06:42:12.793Z,8.65
2023-02-25T06:44:40.872Z,8.68
2023-02-25T06:47:09.146Z,8.65
2023-02-25T06:49:37.432Z,8.60
2023-02-25T19:11:16.448Z,5.95
2023-02-25T19:13:43.167Z,5.95
2023-02-25T19:16:12.365Z,5.95
2023-02-25T19:18:41.008Z,5.97
2023-02-25T19:21:18.566Z,5.92
2023-02-25T19:23:46.743Z,5.83
2023-02-25T19:26:15.412Z,5.81
2023-02-25T19:28:42.150Z,5.76
2023-02-25T19:31:08.967Z,5.76
2023-02-25T19:33:35.840Z,5.82
2023-02-25T19:36:04.010Z,5.85
2023-02-25T19:38:30.875Z,5.89
2023-02-25T19:41:05.817Z,5.89
2023-02-25T19:43:33.495Z,5.81
2023-02-25T19:46:00.698Z,5.74
2023-02-25T19:48:27.424Z,5.67
2023-02-25T19:50:54.640Z,5.53
2023-02-25T19:53:21.428Z,5.43
2023-02-25T19:55:49.288Z,5.33
2023-02-25T19:58:16.030Z,5.24
2023-02-25T20:00:45.695Z,5.22
2023-02-25T20:03:14.736Z,5.22
2023-02-25T20:05:42.101Z,5.31
2023-02-25T20:08:09.354Z,5.40
2023-02-25T20:10:36.194Z,5.50
2023-02-25T20:13:02.991Z,5.58
2023-02-25T20:15:29.633Z,5.66
2023-02-25T20:17:56.925Z,5.72
2023-02-25T20:20:23.665Z,5.77
2023-02-25T20:22:50.816Z,5.84
2023-02-25T20:25:18.586Z,5.81
2023-02-25T20:27:45.425Z,5.65
2023-02-25T20:30:17.220Z,5.58
2023-02-25T20:32:45.086Z,5.52
2023-02-25T20:35:21.133Z,5.48
2023-02-25T20:38:17.660Z,5.52
2023-02-25T20:40:44.695Z,5.57
2023-02-25T20:43:11.736Z,5.60
2023-02-25T20:45:39.104Z,5.61
2023-02-25T20:48:06.869Z,5.59
2023-02-25T20:50:34.010Z,5.62
2023-02-25T20:53:01.059Z,5.59
2023-02-25T20:55:28.411Z,5.51
2023-02-25T20:57:55.271Z,5.42
2023-02-25T21:00:22.114Z,5.33
2023-02-25T21:02:49.146Z,5.32
2023-02-25T21:05:15.898Z,5.33
2023-02-25T21:07:42.625Z,5.21
2023-02-25T21:10:10.510Z,5.02
2023-02-25T21:12:37.206Z,5.00
2023-02-25T21:15:04.497Z,4.95
2023-02-25T21:17:31.221Z,4.86
2023-02-25T21:19:57.980Z,4.82
2023-02-25T21:22:24.918Z,4.81
2023-02-25T21:24:51.659Z,4.81
2023-02-25T21:27:18.406Z,4.77
2023-02-25T21:29:45.236Z,4.78
2023-02-25T21:32:12.147Z,4.78
2023-02-25T21:34:39.353Z,4.78
2023-02-25T21:37:06.275Z,4.82
2023-02-25T21:39:33.326Z,4.89
2023-02-25T21:42:00.278Z,4.98
2023-02-25T21:44:27.106Z,5.08
2023-02-25T21:46:53.662Z,5.17
2023-02-25T21:49:20.400Z,5.24
2023-02-25T21:51:47.129Z,5.29
2023-02-25T21:54:13.949Z,5.37
2023-02-25T21:56:40.615Z,5.44
2023-02-25T21:59:07.448Z,5.47
2023-02-25T22:01:37.981Z,5.55
2023-02-25T22:04:05.386Z,5.64
2023-02-25T22:06:32.813Z,5.70
2023-02-25T22:09:00.360Z,5.76
2023-02-25T22:11:29.772Z,5.83
2023-02-25T22:13:59.378Z,5.90
2023-02-25T22:16:26.941Z,5.89
2023-02-25T22:18:54.402Z,5.86
2023-02-25T22:21:24.511Z,5.84
2023-02-25T22:23:53.602Z,5.83
2023-02-25T22:26:24.133Z,5.82
2023-02-25T22:29:01.963Z,5.83
2023-02-25T22:31:29.307Z,5.71
2023-02-25T22:33:57.488Z,5.60
2023-02-25T22:36:25.093Z,5.57
2023-02-25T22:38:52.592Z,5.53
2023-02-25T22:41:24.715Z,5.50
2023-02-25T22:43:51.805Z,5.55
2023-02-25T22:46:21.137Z,5.57
2023-02-25T22:48:49.530Z,5.61
2023-02-25T22:51:23.088Z,5.67
2023-02-25T22:53:50.234Z,5.70
2023-02-25T22:56:17.047Z,5.76
2023-02-25T22:58:44.120Z,5.80
2023-02-25T23:01:13.428Z,5.86
2023-02-25T23:03:40.374Z,5.90
2023-02-25T23:06:07.268Z,5.94
2023-02-25T23:08:34.564Z,5.95
2023-02-25T23:11:16.302Z,5.94
2023-02-25T23:13:46.964Z,5.93
2023-02-25T23:16:27.275Z,5.87
2023-02-25T23:18:57.676Z,5.82
2023-02-25T23:21:25.676Z,5.77
2023-02-25T23:23:55.458Z,5.73
2023-02-25T23:26:28.344Z,5.69
2023-02-25T23:28:57.442Z,5.67
2023-02-25T23:31:26.864Z,5.66
2023-02-25T23:33:59.165Z,5.65
2023-02-25T23:36:26.513Z,5.66
2023-02-25T23:38:54.569Z,5.63
2023-02-25T23:41:21.742Z,5.65
2023-02-25T23:43:52.328Z,5.66
2023-02-25T23:46:19.770Z,5.65
2023-02-25T23:48:47.315Z,5.61
2023-02-25T23:51:14.383Z,5.59
2023-02-25T23:53:41.442Z,5.56
2023-02-25T23:56:11.103Z,5.56
2023-02-25T23:58:39.465Z,5.56
